In Rescue
 
Open Full Screen Window  High Contrast Mode
Wind Gusting 00 knots
08
May 06, 2019 11:10 AM PDT
Weather Information
Wind Direction
  250 °
Wind Speed
  08 kt (9 mph)
Wind Gust
  00 kt (0 mph)
Altimeter
29.92 in
Visibility
10 SM
Temperature
15° C
59° F
Dewpoint
10° C
50° F
Humidity
72%
1hr Rain Fall
00.00 in.
24hr Rain Fall
00.03 in.
Sky Condition
Overcast @ 2,300 ft
MVFR

METAR KSQL 061810Z AUTO 25008KT 10SM OVC023 15/10 A2992 RMK AO2

FAA Disclaimer: The data displayed is for advisory purposes only and is not to be used for flight planning or operations.